LEAM/LEI METAR and TAF weather

Enter ICAO airport designator
Station Type Date Time Source
LEAM METAR 2021/09/25 03:30 UTC NOAA

LEAM 250330Z 18003KT 150V210 9999 BKN015 24/23 Q1015


Station Type Date Time Source
LEAM Decoded METAR 2021/09/25 03:30 UTC NOAA

Almeria / Aeropuerto, Spain (LEAM) 36-51N 002-23W 21M
Sep 24, 2021 - 11:30 PM EDT / 2021.09.25 0330 UTC
Wind: from the S (180 degrees) at 3 MPH (3 KT) (direction variable):0
Visibility: greater than 7 mile(s):0
Sky conditions: mostly cloudy
Temperature: 75 F (24 C)
Dew Point: 73 F (23 C)
Relative Humidity: 94%
Pressure (altimeter): 29.97 in. Hg (1015 hPa)
ob: LEAM 250330Z 18003KT 150V210 9999 BKN015 24/23 Q1015
cycle: 3

Station Type Date Time Source
LEAM TAF 2021/09/24 18:27 UTC NOAA

TAF LEAM 241700Z 2418/2518 VRB03KT 9999 SCT030 TX27/2513Z TN23/2506Z PROB30
TEMPO 2418/2420 10010KT PROB30
TEMPO 2421/2511 4000 SHRA SCT020TCU BKN025
BECMG 2508/2511 22012KT

Example: see airport list